sensor_id;sensor_type;location;lat;lon;timestamp;P1;durP1;ratioP1;P2;durP2;ratioP2
5718;SDS011;2884;47.734;9.244;2024-03-23T00:54:37;3.40;;;3.10;;
5718;SDS011;2884;47.734;9.244;2024-03-23T00:57:02;4.20;;;3.20;;
5718;SDS011;2884;47.734;9.244;2024-03-23T00:59:28;3.80;;;3.40;;
5718;SDS011;2884;47.734;9.244;2024-03-23T01:01:56;4.83;;;3.17;;
5718;SDS011;2884;47.734;9.244;2024-03-23T01:04:22;6.03;;;3.50;;
5718;SDS011;2884;47.734;9.244;2024-03-23T01:06:48;3.60;;;2.90;;
5718;SDS011;2884;47.734;9.244;2024-03-23T01:09:13;7.50;;;2.77;;
5718;SDS011;2884;47.734;9.244;2024-03-23T01:11:39;3.00;;;2.80;;
5718;SDS011;2884;47.734;9.244;2024-03-23T01:14:11;6.83;;;2.80;;
5718;SDS011;2884;47.734;9.244;2024-03-23T01:16:39;3.03;;;2.73;;
5718;SDS011;2884;47.734;9.244;2024-03-23T01:19:05;3.60;;;3.30;;
5718;SDS011;2884;47.734;9.244;2024-03-23T01:21:31;3.27;;;2.97;;
5718;SDS011;2884;47.734;9.244;2024-03-23T01:23:57;3.40;;;3.10;;
5718;SDS011;2884;47.734;9.244;2024-03-23T01:26:22;5.87;;;3.10;;
5718;SDS011;2884;47.734;9.244;2024-03-23T01:28:48;2.60;;;2.40;;
5718;SDS011;2884;47.734;9.244;2024-03-23T01:31:13;2.83;;;2.53;;
5718;SDS011;2884;47.734;9.244;2024-03-23T01:33:40;5.43;;;3.13;;
5718;SDS011;2884;47.734;9.244;2024-03-23T01:36:06;3.50;;;2.80;;
5718;SDS011;2884;47.734;9.244;2024-03-23T01:38:31;3.77;;;3.20;;
5718;SDS011;2884;47.734;9.244;2024-03-23T01:40:57;3.07;;;2.60;;
5718;SDS011;2884;47.734;9.244;2024-03-23T01:43:25;3.80;;;2.63;;
5718;SDS011;2884;47.734;9.244;2024-03-23T01:45:51;5.73;;;2.67;;
5718;SDS011;2884;47.734;9.244;2024-03-23T01:48:19;3.77;;;3.47;;
5718;SDS011;2884;47.734;9.244;2024-03-23T01:50:48;3.10;;;2.80;;
5718;SDS011;2884;47.734;9.244;2024-03-23T01:53:14;5.57;;;4.33;;
5718;SDS011;2884;47.734;9.244;2024-03-23T01:55:43;3.57;;;3.23;;
5718;SDS011;2884;47.734;9.244;2024-03-23T01:58:11;3.73;;;3.17;;
5718;SDS011;2884;47.734;9.244;2024-03-23T02:00:42;3.50;;;3.20;;
5718;SDS011;2884;47.734;9.244;2024-03-23T02:03:27;4.77;;;2.90;;
5718;SDS011;2884;47.734;9.244;2024-03-23T02:05:55;4.00;;;3.23;;
5718;SDS011;2884;47.734;9.244;2024-03-23T02:08:21;4.40;;;3.37;;
5718;SDS011;2884;47.734;9.244;2024-03-23T02:10:48;5.73;;;3.40;;
5718;SDS011;2884;47.734;9.244;2024-03-23T02:13:15;4.07;;;3.40;;
5718;SDS011;2884;47.734;9.244;2024-03-23T02:15:41;6.40;;;3.57;;
5718;SDS011;2884;47.734;9.244;2024-03-23T02:18:07;5.70;;;3.67;;
5718;SDS011;2884;47.734;9.244;2024-03-23T02:20:34;7.20;;;3.90;;
5718;SDS011;2884;47.734;9.244;2024-03-23T02:23:00;7.30;;;3.47;;
5718;SDS011;2884;47.734;9.244;2024-03-23T02:25:26;4.33;;;3.90;;
5718;SDS011;2884;47.734;9.244;2024-03-23T02:27:51;6.40;;;3.70;;
5718;SDS011;2884;47.734;9.244;2024-03-23T02:30:19;5.33;;;3.70;;
5718;SDS011;2884;47.734;9.244;2024-03-23T02:32:45;3.33;;;3.03;;
5718;SDS011;2884;47.734;9.244;2024-03-23T02:35:10;4.53;;;3.90;;
5718;SDS011;2884;47.734;9.244;2024-03-23T02:37:36;3.83;;;3.50;;
5718;SDS011;2884;47.734;9.244;2024-03-23T02:40:01;4.03;;;2.80;;
5718;SDS011;2884;47.734;9.244;2024-03-23T02:42:27;5.20;;;3.10;;
5718;SDS011;2884;47.734;9.244;2024-03-23T02:44:53;3.10;;;2.80;;
5718;SDS011;2884;47.734;9.244;2024-03-23T02:47:19;5.57;;;3.57;;
5718;SDS011;2884;47.734;9.244;2024-03-23T02:49:45;4.50;;;4.00;;
5718;SDS011;2884;47.734;9.244;2024-03-23T02:52:10;5.40;;;3.50;;
5718;SDS011;2884;47.734;9.244;2024-03-23T02:54:35;6.13;;;3.50;;
5718;SDS011;2884;47.734;9.244;2024-03-23T02:57:02;4.07;;;3.23;;
5718;SDS011;2884;47.734;9.244;2024-03-23T02:59:27;5.37;;;4.10;;
5718;SDS011;2884;47.734;9.244;2024-03-23T03:01:53;3.40;;;3.07;;
5718;SDS011;2884;47.734;9.244;2024-03-23T03:04:18;4.00;;;3.27;;
5718;SDS011;2884;47.734;9.244;2024-03-23T03:06:47;4.03;;;3.73;;
5718;SDS011;2884;47.734;9.244;2024-03-23T03:09:13;6.43;;;4.30;;
5718;SDS011;2884;47.734;9.244;2024-03-23T03:11:39;5.60;;;3.70;;
5718;SDS011;2884;47.734;9.244;2024-03-23T03:14:04;6.83;;;3.33;;
5718;SDS011;2884;47.734;9.244;2024-03-23T03:16:32;4.67;;;3.47;;
5718;SDS011;2884;47.734;9.244;2024-03-23T03:18:58;8.93;;;3.80;;
5718;SDS011;2884;47.734;9.244;2024-03-23T03:21:23;6.90;;;3.60;;
5718;SDS011;2884;47.734;9.244;2024-03-23T03:23:49;6.13;;;3.80;;
5718;SDS011;2884;47.734;9.244;2024-03-23T03:26:18;4.43;;;3.67;;
5718;SDS011;2884;47.734;9.244;2024-03-23T03:28:44;5.10;;;2.93;;
5718;SDS011;2884;47.734;9.244;2024-03-23T03:31:14;8.77;;;4.13;;
5718;SDS011;2884;47.734;9.244;2024-03-23T03:33:42;5.50;;;3.73;;
5718;SDS011;2884;47.734;9.244;2024-03-23T03:36:08;3.97;;;3.60;;
5718;SDS011;2884;47.734;9.244;2024-03-23T03:38:34;5.60;;;3.87;;
5718;SDS011;2884;47.734;9.244;2024-03-23T03:41:03;6.10;;;3.30;;
5718;SDS011;2884;47.734;9.244;2024-03-23T03:43:29;4.30;;;3.80;;
5718;SDS011;2884;47.734;9.244;2024-03-23T03:45:56;5.60;;;4.03;;
5718;SDS011;2884;47.734;9.244;2024-03-23T03:48:22;4.33;;;3.90;;
5718;SDS011;2884;47.734;9.244;2024-03-23T03:50:48;7.33;;;3.63;;
5718;SDS011;2884;47.734;9.244;2024-03-23T03:53:14;7.13;;;4.10;;
5718;SDS011;2884;47.734;9.244;2024-03-23T03:55:40;6.10;;;4.57;;
5718;SDS011;2884;47.734;9.244;2024-03-23T03:58:05;5.00;;;3.90;;
5718;SDS011;2884;47.734;9.244;2024-03-23T04:00:31;5.30;;;4.23;;
5718;SDS011;2884;47.734;9.244;2024-03-23T04:02:57;4.53;;;3.57;;
5718;SDS011;2884;47.734;9.244;2024-03-23T04:05:22;3.83;;;3.53;;
5718;SDS011;2884;47.734;9.244;2024-03-23T04:07:48;4.13;;;3.30;;
5718;SDS011;2884;47.734;9.244;2024-03-23T04:10:14;7.07;;;3.80;;
5718;SDS011;2884;47.734;9.244;2024-03-23T04:12:43;6.77;;;3.93;;
5718;SDS011;2884;47.734;9.244;2024-03-23T04:15:09;5.27;;;4.30;;
5718;SDS011;2884;47.734;9.244;2024-03-23T04:17:35;6.73;;;3.60;;
5718;SDS011;2884;47.734;9.244;2024-03-23T04:20:01;5.43;;;3.50;;
5718;SDS011;2884;47.734;9.244;2024-03-23T04:22:28;6.20;;;3.43;;
5718;SDS011;2884;47.734;9.244;2024-03-23T04:24:54;4.60;;;3.60;;
5718;SDS011;2884;47.734;9.244;2024-03-23T04:27:20;7.50;;;3.53;;
5718;SDS011;2884;47.734;9.244;2024-03-23T04:29:51;5.43;;;3.90;;
5718;SDS011;2884;47.734;9.244;2024-03-23T04:32:18;3.60;;;3.30;;
5718;SDS011;2884;47.734;9.244;2024-03-23T04:34:44;5.77;;;3.97;;
5718;SDS011;2884;47.734;9.244;2024-03-23T04:37:10;3.77;;;3.37;;
5718;SDS011;2884;47.734;9.244;2024-03-23T04:39:36;6.30;;;4.07;;
5718;SDS011;2884;47.734;9.244;2024-03-23T04:42:02;5.83;;;3.70;;
5718;SDS011;2884;47.734;9.244;2024-03-23T04:44:28;3.80;;;3.40;;
5718;SDS011;2884;47.734;9.244;2024-03-23T04:46:54;5.37;;;3.60;;
5718;SDS011;2884;47.734;9.244;2024-03-23T04:49:19;5.50;;;3.77;;
5718;SDS011;2884;47.734;9.244;2024-03-23T04:51:45;12.20;;;4.80;;
5718;SDS011;2884;47.734;9.244;2024-03-23T04:54:13;8.47;;;4.10;;
5718;SDS011;2884;47.734;9.244;2024-03-23T04:56:39;8.13;;;4.13;;
5718;SDS011;2884;47.734;9.244;2024-03-23T04:59:04;11.10;;;4.20;;
5718;SDS011;2884;47.734;9.244;2024-03-23T05:01:30;5.70;;;4.10;;
5718;SDS011;2884;47.734;9.244;2024-03-23T05:03:57;11.77;;;4.17;;
5718;SDS011;2884;47.734;9.244;2024-03-23T05:06:25;8.17;;;3.40;;
5718;SDS011;2884;47.734;9.244;2024-03-23T05:08:51;5.30;;;3.60;;
5718;SDS011;2884;47.734;9.244;2024-03-23T05:11:20;4.17;;;3.70;;
5718;SDS011;2884;47.734;9.244;2024-03-23T05:13:45;5.90;;;3.63;;
5718;SDS011;2884;47.734;9.244;2024-03-23T05:16:13;4.93;;;3.20;;
5718;SDS011;2884;47.734;9.244;2024-03-23T05:18:39;14.40;;;4.13;;
5718;SDS011;2884;47.734;9.244;2024-03-23T05:21:04;6.60;;;3.27;;
5718;SDS011;2884;47.734;9.244;2024-03-23T05:23:30;6.03;;;3.73;;
5718;SDS011;2884;47.734;9.244;2024-03-23T05:25:55;4.10;;;3.10;;
5718;SDS011;2884;47.734;9.244;2024-03-23T05:28:22;5.77;;;3.43;;
5718;SDS011;2884;47.734;9.244;2024-03-23T05:30:53;4.73;;;3.60;;
5718;SDS011;2884;47.734;9.244;2024-03-23T05:33:19;5.60;;;3.60;;
5718;SDS011;2884;47.734;9.244;2024-03-23T05:35:45;8.10;;;3.80;;
5718;SDS011;2884;47.734;9.244;2024-03-23T05:38:11;5.20;;;3.83;;
5718;SDS011;2884;47.734;9.244;2024-03-23T05:40:36;4.33;;;3.60;;
5718;SDS011;2884;47.734;9.244;2024-03-23T05:43:08;3.40;;;3.07;;
5718;SDS011;2884;47.734;9.244;2024-03-23T05:48:33;4.97;;;3.70;;
5718;SDS011;2884;47.734;9.244;2024-03-23T05:51:01;9.13;;;4.30;;
5718;SDS011;2884;47.734;9.244;2024-03-23T05:53:30;3.83;;;3.53;;
5718;SDS011;2884;47.734;9.244;2024-03-23T05:56:00;3.63;;;3.30;;
5718;SDS011;2884;47.734;9.244;2024-03-23T05:58:33;6.57;;;4.30;;
5718;SDS011;2884;47.734;9.244;2024-03-23T06:01:00;7.00;;;4.67;;
5718;SDS011;2884;47.734;9.244;2024-03-23T06:03:27;3.93;;;3.63;;
5718;SDS011;2884;47.734;9.244;2024-03-23T06:05:56;6.73;;;4.33;;
5718;SDS011;2884;47.734;9.244;2024-03-23T06:08:22;6.73;;;4.63;;
5718;SDS011;2884;47.734;9.244;2024-03-23T06:10:49;4.37;;;3.90;;
5718;SDS011;2884;47.734;9.244;2024-03-23T06:13:15;3.70;;;3.40;;
5718;SDS011;2884;47.734;9.244;2024-03-23T06:15:42;4.93;;;2.93;;
5718;SDS011;2884;47.734;9.244;2024-03-23T06:18:07;2.60;;;2.40;;
5718;SDS011;2884;47.734;9.244;2024-03-23T06:20:37;1.90;;;1.80;;
5718;SDS011;2884;47.734;9.244;2024-03-23T06:23:02;1.90;;;1.60;;
5718;SDS011;2884;47.734;9.244;2024-03-23T06:25:29;1.53;;;1.43;;
5718;SDS011;2884;47.734;9.244;2024-03-23T06:27:54;3.43;;;1.50;;
5718;SDS011;2884;47.734;9.244;2024-03-23T06:30:23;2.30;;;1.90;;
5718;SDS011;2884;47.734;9.244;2024-03-23T06:32:52;2.00;;;1.60;;
5718;SDS011;2884;47.734;9.244;2024-03-23T06:35:18;1.37;;;1.37;;
5718;SDS011;2884;47.734;9.244;2024-03-23T06:37:49;1.53;;;1.50;;
5718;SDS011;2884;47.734;9.244;2024-03-23T06:40:15;2.20;;;2.00;;
5718;SDS011;2884;47.734;9.244;2024-03-23T06:42:40;2.20;;;2.00;;
5718;SDS011;2884;47.734;9.244;2024-03-23T06:45:06;2.10;;;2.00;;
5718;SDS011;2884;47.734;9.244;2024-03-23T06:47:32;1.97;;;1.87;;
5718;SDS011;2884;47.734;9.244;2024-03-23T06:49:59;3.53;;;2.23;;
5718;SDS011;2884;47.734;9.244;2024-03-23T06:52:27;2.17;;;2.07;;
5718;SDS011;2884;47.734;9.244;2024-03-23T06:54:53;2.60;;;2.23;;
5718;SDS011;2884;47.734;9.244;2024-03-23T06:57:18;2.30;;;2.10;;
5718;SDS011;2884;47.734;9.244;2024-03-23T06:59:44;3.27;;;2.13;;
5718;SDS011;2884;47.734;9.244;2024-03-23T07:02:10;1.97;;;1.87;;
5718;SDS011;2884;47.734;9.244;2024-03-23T07:04:35;3.30;;;2.90;;
5718;SDS011;2884;47.734;9.244;2024-03-23T07:07:01;2.73;;;2.53;;
5718;SDS011;2884;47.734;9.244;2024-03-23T07:09:28;1.97;;;1.87;;
5718;SDS011;2884;47.734;9.244;2024-03-23T07:11:54;2.20;;;2.07;;
5718;SDS011;2884;47.734;9.244;2024-03-23T07:14:21;1.80;;;1.70;;
5718;SDS011;2884;47.734;9.244;2024-03-23T07:16:53;2.53;;;2.10;;
5718;SDS011;2884;47.734;9.244;2024-03-23T07:19:18;5.80;;;2.53;;
5718;SDS011;2884;47.734;9.244;2024-03-23T07:21:44;4.57;;;2.27;;
5718;SDS011;2884;47.734;9.244;2024-03-23T07:24:10;3.13;;;2.03;;
5718;SDS011;2884;47.734;9.244;2024-03-23T07:26:36;2.83;;;2.13;;
5718;SDS011;2884;47.734;9.244;2024-03-23T07:29:03;3.50;;;2.30;;
5718;SDS011;2884;47.734;9.244;2024-03-23T07:31:29;3.40;;;2.27;;
5718;SDS011;2884;47.734;9.244;2024-03-23T07:33:54;3.10;;;2.20;;
5718;SDS011;2884;47.734;9.244;2024-03-23T07:36:20;3.50;;;2.70;;
5718;SDS011;2884;47.734;9.244;2024-03-23T07:38:45;4.50;;;2.40;;
5718;SDS011;2884;47.734;9.244;2024-03-23T07:41:13;6.50;;;2.27;;
5718;SDS011;2884;47.734;9.244;2024-03-23T07:43:42;3.00;;;2.07;;
5718;SDS011;2884;47.734;9.244;2024-03-23T07:46:08;3.93;;;2.47;;
5718;SDS011;2884;47.734;9.244;2024-03-23T07:48:34;3.20;;;2.63;;
5718;SDS011;2884;47.734;9.244;2024-03-23T07:51:03;2.70;;;2.50;;
5718;SDS011;2884;47.734;9.244;2024-03-23T07:53:33;2.43;;;2.23;;
5718;SDS011;2884;47.734;9.244;2024-03-23T07:56:00;2.80;;;2.60;;
5718;SDS011;2884;47.734;9.244;2024-03-23T07:58:33;3.33;;;3.10;;
5718;SDS011;2884;47.734;9.244;2024-03-23T08:01:06;2.60;;;2.40;;
5718;SDS011;2884;47.734;9.244;2024-03-23T08:03:36;4.67;;;2.90;;
5718;SDS011;2884;47.734;9.244;2024-03-23T08:08:41;4.73;;;2.07;;
5718;SDS011;2884;47.734;9.244;2024-03-23T08:11:09;3.17;;;2.87;;
5718;SDS011;2884;47.734;9.244;2024-03-23T08:13:35;2.80;;;2.23;;
5718;SDS011;2884;47.734;9.244;2024-03-23T08:16:02;3.73;;;2.77;;
5718;SDS011;2884;47.734;9.244;2024-03-23T08:18:28;1.80;;;1.70;;
5718;SDS011;2884;47.734;9.244;2024-03-23T08:20:57;3.40;;;2.10;;
5718;SDS011;2884;47.734;9.244;2024-03-23T08:23:24;1.53;;;1.43;;
5718;SDS011;2884;47.734;9.244;2024-03-23T08:25:50;0.87;;;0.70;;
5718;SDS011;2884;47.734;9.244;2024-03-23T08:28:16;0.60;;;0.60;;
5718;SDS011;2884;47.734;9.244;2024-03-23T08:30:42;0.40;;;0.40;;
5718;SDS011;2884;47.734;9.244;2024-03-23T08:33:07;1.10;;;0.63;;
5718;SDS011;2884;47.734;9.244;2024-03-23T08:35:33;6.10;;;0.70;;
5718;SDS011;2884;47.734;9.244;2024-03-23T08:38:00;0.50;;;0.50;;
5718;SDS011;2884;47.734;9.244;2024-03-23T08:40:25;3.83;;;0.80;;
5718;SDS011;2884;47.734;9.244;2024-03-23T08:42:51;0.83;;;0.60;;
5718;SDS011;2884;47.734;9.244;2024-03-23T08:45:16;1.37;;;0.80;;
5718;SDS011;2884;47.734;9.244;2024-03-23T08:47:42;0.70;;;0.70;;
5718;SDS011;2884;47.734;9.244;2024-03-23T08:50:07;1.77;;;0.90;;
5718;SDS011;2884;47.734;9.244;2024-03-23T08:52:33;0.87;;;0.77;;
5718;SDS011;2884;47.734;9.244;2024-03-23T08:54:59;0.80;;;0.80;;
5718;SDS011;2884;47.734;9.244;2024-03-23T08:57:24;1.07;;;0.70;;
5718;SDS011;2884;47.734;9.244;2024-03-23T08:59:50;1.47;;;0.70;;
5718;SDS011;2884;47.734;9.244;2024-03-23T09:02:15;0.73;;;0.73;;
5718;SDS011;2884;47.734;9.244;2024-03-23T09:04:41;1.80;;;0.50;;
5718;SDS011;2884;47.734;9.244;2024-03-23T09:07:07;0.67;;;0.50;;
5718;SDS011;2884;47.734;9.244;2024-03-23T09:09:32;0.40;;;0.40;;
5718;SDS011;2884;47.734;9.244;2024-03-23T09:11:58;0.50;;;0.50;;
5718;SDS011;2884;47.734;9.244;2024-03-23T09:14:23;0.50;;;0.50;;
5718;SDS011;2884;47.734;9.244;2024-03-23T09:16:52;0.60;;;0.60;;
5718;SDS011;2884;47.734;9.244;2024-03-23T09:19:17;1.63;;;0.60;;
5718;SDS011;2884;47.734;9.244;2024-03-23T09:21:43;0.60;;;0.60;;
5718;SDS011;2884;47.734;9.244;2024-03-23T09:24:09;1.53;;;0.60;;
5718;SDS011;2884;47.734;9.244;2024-03-23T09:26:34;0.53;;;0.53;;
5718;SDS011;2884;47.734;9.244;2024-03-23T09:29:00;0.47;;;0.47;;
5718;SDS011;2884;47.734;9.244;2024-03-23T09:31:25;0.60;;;0.60;;
5718;SDS011;2884;47.734;9.244;2024-03-23T09:33:51;1.17;;;0.60;;
5718;SDS011;2884;47.734;9.244;2024-03-23T09:36:16;0.50;;;0.50;;
5718;SDS011;2884;47.734;9.244;2024-03-23T09:38:42;0.50;;;0.50;;
5718;SDS011;2884;47.734;9.244;2024-03-23T09:41:08;7.30;;;1.23;;
5718;SDS011;2884;47.734;9.244;2024-03-23T09:43:34;0.70;;;0.60;;
5718;SDS011;2884;47.734;9.244;2024-03-23T09:46:01;0.83;;;0.60;;
5718;SDS011;2884;47.734;9.244;2024-03-23T09:48:27;2.40;;;0.70;;
5718;SDS011;2884;47.734;9.244;2024-03-23T09:50:53;0.50;;;0.50;;
5718;SDS011;2884;47.734;9.244;2024-03-23T09:53:18;2.40;;;0.70;;
5718;SDS011;2884;47.734;9.244;2024-03-23T09:55:44;2.87;;;0.70;;
5718;SDS011;2884;47.734;9.244;2024-03-23T09:58:14;0.70;;;0.70;;
5718;SDS011;2884;47.734;9.244;2024-03-23T10:00:40;0.93;;;0.80;;
5718;SDS011;2884;47.734;9.244;2024-03-23T10:03:06;1.33;;;0.63;;
5718;SDS011;2884;47.734;9.244;2024-03-23T10:05:32;0.50;;;0.50;;
5718;SDS011;2884;47.734;9.244;2024-03-23T10:08:16;3.70;;;0.80;;
5718;SDS011;2884;47.734;9.244;2024-03-23T10:10:43;1.23;;;0.90;;
5718;SDS011;2884;47.734;9.244;2024-03-23T10:13:09;2.67;;;0.80;;
5718;SDS011;2884;47.734;9.244;2024-03-23T10:15:37;1.37;;;0.70;;
5718;SDS011;2884;47.734;9.244;2024-03-23T10:18:17;1.00;;;1.00;;
5718;SDS011;2884;47.734;9.244;2024-03-23T10:20:45;1.17;;;0.80;;
5718;SDS011;2884;47.734;9.244;2024-03-23T10:23:16;2.00;;;1.30;;
5718;SDS011;2884;47.734;9.244;2024-03-23T10:25:42;1.80;;;0.90;;
5718;SDS011;2884;47.734;9.244;2024-03-23T10:28:07;2.37;;;1.30;;
5718;SDS011;2884;47.734;9.244;2024-03-23T10:30:33;3.50;;;0.77;;
5718;SDS011;2884;47.734;9.244;2024-03-23T10:33:11;1.43;;;0.80;;
5718;SDS011;2884;47.734;9.244;2024-03-23T10:35:37;1.90;;;1.23;;
5718;SDS011;2884;47.734;9.244;2024-03-23T10:38:06;1.87;;;1.00;;
5718;SDS011;2884;47.734;9.244;2024-03-23T10:40:35;1.40;;;0.80;;
5718;SDS011;2884;47.734;9.244;2024-03-23T10:43:04;2.20;;;0.83;;
5718;SDS011;2884;47.734;9.244;2024-03-23T10:45:31;5.43;;;1.00;;
5718;SDS011;2884;47.734;9.244;2024-03-23T10:47:57;2.40;;;0.93;;
5718;SDS011;2884;47.734;9.244;2024-03-23T10:50:22;2.27;;;0.80;;
5718;SDS011;2884;47.734;9.244;2024-03-23T10:52:48;1.87;;;1.00;;
5718;SDS011;2884;47.734;9.244;2024-03-23T10:55:17;1.30;;;0.80;;
5718;SDS011;2884;47.734;9.244;2024-03-23T10:57:45;3.63;;;0.90;;
5718;SDS011;2884;47.734;9.244;2024-03-23T11:00:15;2.03;;;1.03;;
5718;SDS011;2884;47.734;9.244;2024-03-23T11:02:41;1.93;;;1.00;;
5718;SDS011;2884;47.734;9.244;2024-03-23T11:07:51;2.50;;;0.90;;
5718;SDS011;2884;47.734;9.244;2024-03-23T11:10:27;3.80;;;1.03;;
5718;SDS011;2884;47.734;9.244;2024-03-23T11:15:49;3.27;;;0.93;;
5718;SDS011;2884;47.734;9.244;2024-03-23T11:18:20;2.00;;;0.90;;
5718;SDS011;2884;47.734;9.244;2024-03-23T11:20:46;3.20;;;0.97;;
5718;SDS011;2884;47.734;9.244;2024-03-23T11:23:27;1.50;;;1.40;;
5718;SDS011;2884;47.734;9.244;2024-03-23T11:25:53;13.77;;;1.37;;
5718;SDS011;2884;47.734;9.244;2024-03-23T11:28:18;3.00;;;1.10;;
5718;SDS011;2884;47.734;9.244;2024-03-23T11:30:44;6.73;;;1.20;;
5718;SDS011;2884;47.734;9.244;2024-03-23T11:33:09;2.10;;;1.20;;
5718;SDS011;2884;47.734;9.244;2024-03-23T11:35:39;2.03;;;1.00;;
5718;SDS011;2884;47.734;9.244;2024-03-23T11:38:09;2.37;;;1.20;;
5718;SDS011;2884;47.734;9.244;2024-03-23T11:40:36;1.50;;;1.00;;
5718;SDS011;2884;47.734;9.244;2024-03-23T11:43:03;1.40;;;0.93;;
5718;SDS011;2884;47.734;9.244;2024-03-23T11:45:33;2.50;;;0.80;;
5718;SDS011;2884;47.734;9.244;2024-03-23T11:48:10;3.20;;;1.37;;
5718;SDS011;2884;47.734;9.244;2024-03-23T11:50:38;7.60;;;1.80;;
5718;SDS011;2884;47.734;9.244;2024-03-23T11:53:18;4.23;;;1.50;;
5718;SDS011;2884;47.734;9.244;2024-03-23T11:55:51;11.60;;;2.03;;
5718;SDS011;2884;47.734;9.244;2024-03-23T11:58:18;3.00;;;1.30;;
5718;SDS011;2884;47.734;9.244;2024-03-23T12:00:57;7.00;;;1.77;;
5718;SDS011;2884;47.734;9.244;2024-03-23T12:03:24;4.17;;;1.63;;
5718;SDS011;2884;47.734;9.244;2024-03-23T12:06:00;3.20;;;1.43;;
5718;SDS011;2884;47.734;9.244;2024-03-23T12:08:34;7.90;;;1.87;;
5718;SDS011;2884;47.734;9.244;2024-03-23T12:11:11;5.93;;;1.73;;
5718;SDS011;2884;47.734;9.244;2024-03-23T12:13:38;6.87;;;1.40;;
5718;SDS011;2884;47.734;9.244;2024-03-23T12:18:35;5.50;;;1.70;;
5718;SDS011;2884;47.734;9.244;2024-03-23T12:21:01;9.27;;;2.43;;
5718;SDS011;2884;47.734;9.244;2024-03-23T12:23:27;7.40;;;2.20;;
5718;SDS011;2884;47.734;9.244;2024-03-23T12:25:52;4.30;;;1.73;;
5718;SDS011;2884;47.734;9.244;2024-03-23T12:28:18;6.20;;;2.23;;
5718;SDS011;2884;47.734;9.244;2024-03-23T12:30:43;4.93;;;1.80;;
5718;SDS011;2884;47.734;9.244;2024-03-23T12:33:09;4.23;;;1.20;;
5718;SDS011;2884;47.734;9.244;2024-03-23T12:35:34;8.00;;;2.00;;
5718;SDS011;2884;47.734;9.244;2024-03-23T12:38:00;10.70;;;1.80;;
5718;SDS011;2884;47.734;9.244;2024-03-23T12:40:25;4.10;;;1.40;;
5718;SDS011;2884;47.734;9.244;2024-03-23T12:42:53;5.60;;;1.77;;
5718;SDS011;2884;47.734;9.244;2024-03-23T12:45:18;4.30;;;1.30;;
5718;SDS011;2884;47.734;9.244;2024-03-23T12:47:44;2.20;;;0.93;;
5718;SDS011;2884;47.734;9.244;2024-03-23T12:50:10;3.47;;;1.27;;
5718;SDS011;2884;47.734;9.244;2024-03-23T12:52:36;2.43;;;1.50;;
5718;SDS011;2884;47.734;9.244;2024-03-23T12:55:02;3.23;;;0.83;;
5718;SDS011;2884;47.734;9.244;2024-03-23T12:57:31;2.57;;;1.27;;
5718;SDS011;2884;47.734;9.244;2024-03-23T12:59:57;1.57;;;0.80;;
5718;SDS011;2884;47.734;9.244;2024-03-23T13:02:23;2.60;;;0.90;;
5718;SDS011;2884;47.734;9.244;2024-03-23T13:04:52;1.23;;;0.87;;
5718;SDS011;2884;47.734;9.244;2024-03-23T13:07:19;2.70;;;1.13;;
5718;SDS011;2884;47.734;9.244;2024-03-23T13:09:45;1.07;;;0.80;;
5718;SDS011;2884;47.734;9.244;2024-03-23T13:12:11;4.53;;;0.90;;
5718;SDS011;2884;47.734;9.244;2024-03-23T13:14:39;1.77;;;0.83;;
5718;SDS011;2884;47.734;9.244;2024-03-23T13:17:05;0.87;;;0.87;;
5718;SDS011;2884;47.734;9.244;2024-03-23T13:19:31;0.60;;;0.60;;
5718;SDS011;2884;47.734;9.244;2024-03-23T13:21:57;0.80;;;0.73;;
5718;SDS011;2884;47.734;9.244;2024-03-23T13:24:24;2.27;;;0.70;;
5718;SDS011;2884;47.734;9.244;2024-03-23T13:26:50;1.53;;;0.70;;
5718;SDS011;2884;47.734;9.244;2024-03-23T13:29:17;4.93;;;0.87;;
5718;SDS011;2884;47.734;9.244;2024-03-23T13:31:42;1.90;;;0.70;;
5718;SDS011;2884;47.734;9.244;2024-03-23T13:34:08;1.80;;;0.80;;
5718;SDS011;2884;47.734;9.244;2024-03-23T13:36:34;1.00;;;0.90;;
5718;SDS011;2884;47.734;9.244;2024-03-23T13:39:00;1.27;;;0.70;;
5718;SDS011;2884;47.734;9.244;2024-03-23T13:41:31;3.40;;;1.07;;
5718;SDS011;2884;47.734;9.244;2024-03-23T13:43:57;1.67;;;0.83;;
5718;SDS011;2884;47.734;9.244;2024-03-23T13:46:22;1.13;;;0.70;;
5718;SDS011;2884;47.734;9.244;2024-03-23T13:48:48;3.07;;;1.30;;
5718;SDS011;2884;47.734;9.244;2024-03-23T13:51:13;4.43;;;1.60;;
5718;SDS011;2884;47.734;9.244;2024-03-23T13:53:39;3.23;;;1.47;;
5718;SDS011;2884;47.734;9.244;2024-03-23T13:56:05;4.40;;;1.10;;
5718;SDS011;2884;47.734;9.244;2024-03-23T13:58:30;4.10;;;1.63;;
5718;SDS011;2884;47.734;9.244;2024-03-23T14:00:59;3.97;;;0.93;;
5718;SDS011;2884;47.734;9.244;2024-03-23T14:03:25;4.07;;;1.40;;
5718;SDS011;2884;47.734;9.244;2024-03-23T14:05:50;4.27;;;0.97;;
5718;SDS011;2884;47.734;9.244;2024-03-23T14:08:17;7.70;;;1.60;;
5718;SDS011;2884;47.734;9.244;2024-03-23T14:10:43;2.93;;;0.80;;
5718;SDS011;2884;47.734;9.244;2024-03-23T14:13:08;5.47;;;1.40;;
5718;SDS011;2884;47.734;9.244;2024-03-23T14:15:34;5.33;;;1.80;;
5718;SDS011;2884;47.734;9.244;2024-03-23T14:18:02;2.53;;;1.23;;
5718;SDS011;2884;47.734;9.244;2024-03-23T14:20:28;3.43;;;1.20;;
5718;SDS011;2884;47.734;9.244;2024-03-23T14:22:54;6.43;;;1.63;;
5718;SDS011;2884;47.734;9.244;2024-03-23T14:25:19;4.10;;;1.40;;
5718;SDS011;2884;47.734;9.244;2024-03-23T14:27:47;6.50;;;1.20;;
5718;SDS011;2884;47.734;9.244;2024-03-23T14:30:12;6.00;;;1.47;;
5718;SDS011;2884;47.734;9.244;2024-03-23T14:32:39;4.63;;;1.50;;
5718;SDS011;2884;47.734;9.244;2024-03-23T14:35:04;9.43;;;1.53;;
5718;SDS011;2884;47.734;9.244;2024-03-23T14:37:32;10.33;;;1.53;;
5718;SDS011;2884;47.734;9.244;2024-03-23T14:39:58;5.27;;;1.97;;
5718;SDS011;2884;47.734;9.244;2024-03-23T14:42:24;3.60;;;1.30;;
5718;SDS011;2884;47.734;9.244;2024-03-23T14:44:49;4.20;;;1.30;;
5718;SDS011;2884;47.734;9.244;2024-03-23T14:47:17;3.40;;;1.50;;
5718;SDS011;2884;47.734;9.244;2024-03-23T14:49:43;5.00;;;1.50;;
5718;SDS011;2884;47.734;9.244;2024-03-23T14:52:15;6.43;;;1.73;;
5718;SDS011;2884;47.734;9.244;2024-03-23T14:54:41;3.40;;;1.37;;
5718;SDS011;2884;47.734;9.244;2024-03-23T14:57:06;8.00;;;1.47;;
5718;SDS011;2884;47.734;9.244;2024-03-23T14:59:34;6.27;;;1.60;;
5718;SDS011;2884;47.734;9.244;2024-03-23T15:02:00;5.10;;;1.70;;
5718;SDS011;2884;47.734;9.244;2024-03-23T15:04:26;7.17;;;1.60;;
5718;SDS011;2884;47.734;9.244;2024-03-23T15:06:51;5.30;;;1.17;;
5718;SDS011;2884;47.734;9.244;2024-03-23T15:09:17;8.63;;;1.80;;
5718;SDS011;2884;47.734;9.244;2024-03-23T15:11:43;4.33;;;1.40;;
5718;SDS011;2884;47.734;9.244;2024-03-23T15:14:08;6.70;;;1.83;;
5718;SDS011;2884;47.734;9.244;2024-03-23T15:16:36;7.37;;;1.93;;
5718;SDS011;2884;47.734;9.244;2024-03-23T15:19:02;4.53;;;1.77;;
5718;SDS011;2884;47.734;9.244;2024-03-23T15:21:27;9.20;;;1.20;;
5718;SDS011;2884;47.734;9.244;2024-03-23T15:23:53;3.87;;;1.27;;
5718;SDS011;2884;47.734;9.244;2024-03-23T15:26:18;4.33;;;1.20;;
5718;SDS011;2884;47.734;9.244;2024-03-23T15:28:47;2.73;;;1.20;;
5718;SDS011;2884;47.734;9.244;2024-03-23T15:31:22;4.40;;;1.13;;
5718;SDS011;2884;47.734;9.244;2024-03-23T15:33:48;3.90;;;1.10;;
5718;SDS011;2884;47.734;9.244;2024-03-23T15:36:14;10.73;;;1.40;;
5718;SDS011;2884;47.734;9.244;2024-03-23T15:38:39;5.17;;;1.47;;
5718;SDS011;2884;47.734;9.244;2024-03-23T15:41:05;5.40;;;1.20;;
5718;SDS011;2884;47.734;9.244;2024-03-23T15:43:30;3.73;;;1.27;;
5718;SDS011;2884;47.734;9.244;2024-03-23T15:45:57;3.43;;;1.37;;
5718;SDS011;2884;47.734;9.244;2024-03-23T15:48:24;2.90;;;1.50;;
5718;SDS011;2884;47.734;9.244;2024-03-23T15:51:02;2.40;;;1.00;;
5718;SDS011;2884;47.734;9.244;2024-03-23T15:53:31;8.83;;;2.20;;
5718;SDS011;2884;47.734;9.244;2024-03-23T15:55:57;6.07;;;1.23;;
5718;SDS011;2884;47.734;9.244;2024-03-23T15:58:26;4.20;;;1.30;;
5718;SDS011;2884;47.734;9.244;2024-03-23T16:03:28;2.97;;;1.00;;
5718;SDS011;2884;47.734;9.244;2024-03-23T16:05:59;4.37;;;1.10;;
5718;SDS011;2884;47.734;9.244;2024-03-23T16:08:25;7.00;;;1.07;;
5718;SDS011;2884;47.734;9.244;2024-03-23T16:10:51;4.30;;;1.33;;
5718;SDS011;2884;47.734;9.244;2024-03-23T16:13:18;3.90;;;1.00;;
5718;SDS011;2884;47.734;9.244;2024-03-23T16:15:44;3.00;;;1.37;;
5718;SDS011;2884;47.734;9.244;2024-03-23T16:18:10;3.10;;;1.30;;
5718;SDS011;2884;47.734;9.244;2024-03-23T16:20:36;6.40;;;1.07;;
5718;SDS011;2884;47.734;9.244;2024-03-23T16:23:02;7.13;;;1.67;;